Hulett, WY

1:50 PM MST on January 18, 2018 (GMT -0700)
Hulett

Weather History for KW43 - September, 2013

Change the Weather History Date:

Monday, September 30, 2013

  Actual Average (KEFC) Record (KEFC)
Temperature  
Mean Temperature 61 °F -  
Max Temperature 78 °F 73 °F 94 °F (1980)
Min Temperature 44 °F 38 °F 22 °F (1958)
Degree Days  
Heating Degree Days 4    
Growing Degree Days 11 (Base 50)    
Moisture  
Dew Point 37 °F    
Average Humidity 50    
Maximum Humidity 81    
Minimum Humidity 21    
Precipitation  
Precipitation 0.00 in - - ()
Sea Level Pressure  
Sea Level Pressure 29.72 in    
Wind  
Wind Speed 11 mph (SW)    
Max Wind Speed 23 mph    
Max Gust Speed 34 mph    
Visibility 10 miles    
Events      
Averages and records for this station are not official NWS values.
T = Trace of Precipitation, MM = Missing Value Source: NWS Daily Summary

Daily Weather History Graph

Daily Weather History Graph

Search for Another Location

Airport or City:

Trip Planner

Search our weather history database for the weather conditions in past years. The results will help you decide how hot, cold, wet, or windy it might be!

Date:

Astronomy

Sep. 30, 2013 Rise Set
Actual Time 6:55 AM MDT 6:40 PM MDT
Civil Twilight 6:26 AM MDT 7:09 PM MDT
Nautical Twilight 5:52 AM MDT 7:43 PM MDT
Astronomical Twilight 5:17 AM MDT 8:17 PM MDT
Moon 2:25 AM MDT (9/30) 4:20 PM MDT (9/30)
Length of Visible Light 12h 42m
Length of Day
11h 44m
Waning Crescent, 18% of the Moon is Illuminated
Sep 30
Waning Crescent
Oct 4
New
Oct 11
First Quarter
Oct 18
Full
Oct 26
Last Quarter

Hourly Weather History & Observations

Time (MDT) Temp. Windchill Dew Point Humidity Pressure Visibility Wind Dir Wind Speed Gust Speed Precip Events Conditions
12:15 AM 53.6 °F - 35.6 °F 51% 29.75 in 10.0 mi SSW 6.9 mph - N/A   Clear
12:35 AM 51.8 °F - 37.4 °F 58% 29.75 in 10.0 mi SSW 9.2 mph - N/A   Clear
12:55 AM 51.8 °F - 35.6 °F 54% 29.74 in 10.0 mi SW 11.5 mph - N/A   Clear
1:15 AM 51.8 °F - 35.6 °F 54% 29.75 in 10.0 mi SSW 9.2 mph - N/A   Clear
1:35 AM 51.8 °F - 35.6 °F 54% 29.74 in 10.0 mi South 9.2 mph - N/A   Clear
1:55 AM 51.8 °F - 35.6 °F 54% 29.74 in 10.0 mi SSW 6.9 mph - N/A   Clear
2:15 AM 53.6 °F - 35.6 °F 51% 29.74 in 10.0 mi SSW 12.7 mph - N/A   Clear
2:35 AM 55.4 °F - 35.6 °F 47% 29.74 in 10.0 mi SSW 6.9 mph - N/A   Clear
2:55 AM 53.6 °F - 35.6 °F 51% 29.73 in 10.0 mi SSW 8.1 mph - N/A   Clear
3:15 AM 53.6 °F - 35.6 °F 51% 29.72 in 10.0 mi South 9.2 mph - N/A   Clear
3:35 AM 53.6 °F - 35.6 °F 51% 29.73 in 10.0 mi SW 4.6 mph - N/A   Clear
3:55 AM 51.8 °F - 35.6 °F 54% 29.72 in 10.0 mi SSW 4.6 mph - N/A   Clear
4:15 AM 51.8 °F - 35.6 °F 54% 29.71 in 10.0 mi SSW 8.1 mph - N/A   Clear
4:35 AM 51.8 °F - 35.6 °F 54% 29.71 in 10.0 mi SSW 4.6 mph - N/A   Clear
4:55 AM 51.8 °F - 35.6 °F 54% 29.71 in 10.0 mi SW 4.6 mph - N/A   Clear
5:15 AM 53.6 °F - 35.6 °F 51% 29.70 in 10.0 mi SSW 15.0 mph - N/A   Clear
5:35 AM 55.4 °F - 35.6 °F 47% 29.70 in 10.0 mi SSW 13.8 mph - N/A   Clear
5:55 AM 55.4 °F - 35.6 °F 47% 29.69 in 10.0 mi SSW 12.7 mph - N/A   Clear
6:15 AM 53.6 °F - 35.6 °F 51% 29.68 in 10.0 mi SSW 8.1 mph - N/A   Clear
6:35 AM 55.4 °F - 33.8 °F 44% 29.69 in 10.0 mi North - - N/A   Clear
6:55 AM 55.4 °F - 35.6 °F 47% 29.69 in 10.0 mi SSW 15.0 mph - N/A   Clear
7:15 AM 55.4 °F - 35.6 °F 47% 29.68 in 10.0 mi South 10.4 mph - N/A   Clear
7:35 AM 55.4 °F - 35.6 °F 47% 29.67 in 10.0 mi South 11.5 mph 16.1 mph N/A   Clear
7:55 AM 59.0 °F - 35.6 °F 42% 29.68 in 10.0 mi SSW 15.0 mph - N/A   Clear
8:15 AM 59.0 °F - 35.6 °F 42% 29.68 in 10.0 mi SSW 15.0 mph - N/A   Scattered Clouds
8:35 AM 60.8 °F - 35.6 °F 39% 29.69 in 10.0 mi SSW 19.6 mph 25.3 mph N/A   Scattered Clouds
8:55 AM 60.8 °F - 35.6 °F 39% 29.68 in 10.0 mi SSW 18.4 mph 25.3 mph N/A   Mostly Cloudy
9:15 AM 60.8 °F - 35.6 °F 39% 29.67 in 10.0 mi SSW 15.0 mph 24.2 mph N/A   Mostly Cloudy
9:35 AM 62.6 °F - 35.6 °F 37% 29.66 in 10.0 mi SSW 12.7 mph - N/A   Scattered Clouds
9:55 AM 66.2 °F - 37.4 °F 35% 29.66 in 10.0 mi SW 11.5 mph 18.4 mph N/A   Mostly Cloudy
10:15 AM 66.2 °F - 37.4 °F 35% 29.66 in 10.0 mi SSW 18.4 mph 25.3 mph N/A   Scattered Clouds
10:35 AM 64.4 °F - 37.4 °F 37% 29.65 in 10.0 mi SSW 17.3 mph 25.3 mph N/A   Clear
10:55 AM 68.0 °F - 37.4 °F 33% 29.64 in 10.0 mi SSW 19.6 mph 26.5 mph N/A   Clear
11:15 AM 68.0 °F - 37.4 °F 33% 29.64 in 10.0 mi SSW 21.9 mph 27.6 mph N/A   Clear
11:35 AM 69.8 °F - 39.2 °F 33% 29.62 in 10.0 mi SSW 20.7 mph 26.5 mph N/A   Clear
11:55 AM 71.6 °F - 41.0 °F 33% 29.62 in 10.0 mi SW 21.9 mph 29.9 mph N/A   Clear
12:15 PM 73.4 °F - 41.0 °F 31% 29.61 in 10.0 mi SW 16.1 mph 25.3 mph N/A   Clear
12:35 PM 75.2 °F - 39.2 °F 27% 29.61 in 10.0 mi SW 13.8 mph 24.2 mph N/A   Clear
12:55 PM 77.0 °F - 39.2 °F 26% 29.60 in 10.0 mi SW 18.4 mph 26.5 mph N/A   Clear
1:15 PM 75.2 °F - 37.4 °F 25% 29.60 in 10.0 mi SW 19.6 mph - N/A   Clear
1:35 PM 77.0 °F - 37.4 °F 24% 29.59 in 10.0 mi West 21.9 mph - N/A   Scattered Clouds
1:55 PM 77.0 °F - 37.4 °F 24% 29.59 in 10.0 mi SW 17.3 mph - N/A   Scattered Clouds
2:15 PM 77.0 °F - 37.4 °F 24% 29.59 in 10.0 mi WSW 17.3 mph - N/A   Scattered Clouds
2:35 PM 77.0 °F - 37.4 °F 24% 29.59 in 10.0 mi North - - N/A   Clear
2:55 PM 78.8 °F - 37.4 °F 23% 29.59 in 10.0 mi WSW 11.5 mph 26.5 mph N/A   Clear
3:15 PM 77.0 °F - 35.6 °F 22% 29.59 in 10.0 mi West 18.4 mph 27.6 mph N/A   Scattered Clouds
3:35 PM 75.2 °F - 37.4 °F 25% 29.59 in 10.0 mi WSW 9.2 mph - N/A   Scattered Clouds
3:55 PM 78.8 °F - 35.6 °F 21% 29.59 in 10.0 mi West 15.0 mph 20.7 mph N/A   Scattered Clouds
4:15 PM 75.2 °F - 37.4 °F 25% 29.63 in 10.0 mi NNW 23.0 mph - N/A   Overcast
4:35 PM 57.2 °F - 48.2 °F 72% 29.71 in 10.0 mi NNW 19.6 mph 34.5 mph N/A   Mostly Cloudy
4:55 PM 53.6 °F - 46.4 °F 77% 29.75 in 10.0 mi North 18.4 mph 29.9 mph N/A   Overcast
5:15 PM 51.8 °F - 44.6 °F 76% 29.77 in 10.0 mi North 18.4 mph 26.5 mph N/A   Overcast
5:35 PM 53.6 °F - 42.8 °F 67% 29.80 in 10.0 mi North 10.4 mph 29.9 mph N/A   Scattered Clouds
5:55 PM 51.8 °F - 41.0 °F 67% 29.80 in 10.0 mi NNW 6.9 mph - N/A   Scattered Clouds
6:15 PM 51.8 °F - 41.0 °F 67% 29.80 in 10.0 mi North 4.6 mph - N/A   Clear
6:35 PM 50.0 °F - 41.0 °F 71% 29.81 in 10.0 mi NNW 4.6 mph - N/A   Clear
6:55 PM 50.0 °F - 41.0 °F 71% 29.81 in 10.0 mi North 5.8 mph - N/A   Clear
7:15 PM 50.0 °F - 39.2 °F 66% 29.82 in 10.0 mi Calm Calm - N/A   Clear
7:35 PM 50.0 °F - 39.2 °F 66% 29.83 in 10.0 mi Calm Calm - N/A   Scattered Clouds
7:55 PM 46.4 °F 42.4 °F 41.0 °F 81% 29.83 in 10.0 mi South 8.1 mph - N/A   Scattered Clouds
8:15 PM 46.4 °F 43.5 °F 39.2 °F 76% 29.84 in 10.0 mi South 5.8 mph - N/A   Clear
8:35 PM 48.2 °F - 39.2 °F 71% 29.84 in 10.0 mi North - - N/A   Scattered Clouds
8:55 PM 48.2 °F - 39.2 °F 71% 29.85 in 10.0 mi SSW 6.9 mph - N/A   Scattered Clouds
9:15 PM 46.4 °F 42.4 °F 39.2 °F 76% 29.86 in 10.0 mi SSW 8.1 mph - N/A   Scattered Clouds
9:35 PM 48.2 °F - 39.2 °F 71% 29.87 in 10.0 mi SSW 8.1 mph - N/A   Clear
9:55 PM 46.4 °F 42.4 °F 37.4 °F 71% 29.87 in 10.0 mi SSW 8.1 mph - N/A   Scattered Clouds
10:15 PM 46.4 °F 42.9 °F 37.4 °F 71% 29.88 in 10.0 mi SW 6.9 mph - N/A   Scattered Clouds
10:35 PM 46.4 °F 42.4 °F 35.6 °F 66% 29.88 in 10.0 mi SSW 8.1 mph - N/A   Clear
10:55 PM 44.6 °F 39.7 °F 35.6 °F 71% 29.89 in 10.0 mi SSW 9.2 mph - N/A   Clear
11:15 PM 46.4 °F 42.4 °F 33.8 °F 62% 29.89 in 10.0 mi SSW 8.1 mph - N/A   Clear
11:35 PM 46.4 °F 42.9 °F 33.8 °F 62% 29.89 in 10.0 mi SW 6.9 mph - N/A   Clear
11:55 PM 46.4 °F 41.9 °F 33.8 °F 62% 29.90 in 10.0 mi SSW 9.2 mph - N/A   Mostly Cloudy